createdAt,value
2022-08-12T00:00:53.741Z,47.53
2022-08-12T00:03:39.806Z,47.41
2022-08-12T00:06:26.265Z,48.04
2022-08-12T00:09:12.421Z,47.99
2022-08-12T00:11:58.203Z,47.54
2022-08-12T00:14:44.157Z,48.02
2022-08-12T00:17:30.653Z,48.31
2022-08-12T00:20:16.528Z,48.51
2022-08-12T00:23:03.040Z,48.77
2022-08-12T00:26:20.711Z,48.77
2022-08-12T00:29:03.329Z,48.90
2022-08-12T00:31:49.022Z,49.05
2022-08-12T00:34:35.136Z,48.99
2022-08-12T00:37:21.128Z,48.77
2022-08-12T00:40:10.779Z,49.14
2022-08-12T00:42:40.871Z,49.24
2022-08-12T00:45:09.307Z,49.24
2022-08-12T00:47:36.618Z,49.10
2022-08-12T00:50:04.414Z,49.07
2022-08-12T00:52:31.950Z,49.20
2022-08-12T00:55:00.593Z,49.40
2022-08-12T00:57:31.678Z,49.29
2022-08-12T01:00:08.727Z,49.59
2022-08-12T01:02:38.952Z,49.77
2022-08-12T01:05:29.163Z,49.84
2022-08-12T01:08:15.028Z,49.76
2022-08-12T01:11:02.418Z,49.49
2022-08-12T01:13:30.472Z,49.88
2022-08-12T01:15:59.956Z,50.22
2022-08-12T01:18:29.400Z,50.33
2022-08-12T01:21:09.375Z,50.40
2022-08-12T01:23:50.305Z,50.80
2022-08-12T01:26:23.579Z,51.01
2022-08-12T01:28:55.184Z,51.50
2022-08-12T01:31:24.731Z,51.10
2022-08-12T01:34:03.982Z,51.05
2022-08-12T01:36:37.095Z,51.42
2022-08-12T01:39:04.732Z,51.33
2022-08-12T01:41:32.167Z,51.31
2022-08-12T01:44:03.626Z,51.37
2022-08-12T01:46:52.389Z,51.71
2022-08-12T01:49:45.217Z,51.64
2022-08-12T01:52:31.006Z,51.61
2022-08-12T01:54:58.931Z,51.70
2022-08-12T01:57:59.168Z,51.93
2022-08-12T02:00:46.945Z,51.77
2022-08-12T02:04:13.851Z,51.51
2022-08-12T02:07:02.242Z,51.76
2022-08-12T02:10:01.899Z,51.69
2022-08-12T02:12:53.657Z,51.66
2022-08-12T02:15:30.466Z,51.52
2022-08-12T02:18:00.089Z,51.89
2022-08-12T02:20:51.278Z,51.88
2022-08-12T02:23:27.233Z,52.26
2022-08-12T02:26:05.760Z,52.53
2022-08-12T02:28:33.337Z,52.70
2022-08-12T02:31:05.601Z,52.54
2022-08-12T02:33:33.217Z,52.66
2022-08-12T02:36:02.536Z,52.53
2022-08-12T02:38:31.406Z,52.66
2022-08-12T02:40:59.887Z,52.64
2022-08-12T02:43:33.138Z,52.79
2022-08-12T02:46:04.745Z,53.02
2022-08-12T02:48:37.786Z,53.52
2022-08-12T02:51:06.433Z,52.91
2022-08-12T02:53:36.601Z,52.61
2022-08-12T02:56:04.651Z,52.46
2022-08-12T02:58:33.420Z,52.83
2022-08-12T03:01:02.462Z,53.12
2022-08-12T03:03:33.842Z,52.93
2022-08-12T03:06:07.276Z,53.04
2022-08-12T03:08:43.580Z,53.39
2022-08-12T03:11:25.942Z,53.14
2022-08-12T03:13:59.404Z,53.57
2022-08-12T03:16:28.217Z,53.57
2022-08-12T03:18:55.683Z,54.00
2022-08-12T03:21:55.369Z,54.24
2022-08-12T03:24:12.408Z,54.23
2022-08-12T03:26:39.828Z,54.32
2022-08-12T03:29:07.435Z,54.19
2022-08-12T03:31:34.788Z,54.44
2022-08-12T03:34:14.156Z,54.65
2022-08-12T03:36:42.282Z,54.45
2022-08-12T03:39:19.432Z,54.75
2022-08-12T03:42:06.335Z,54.38
2022-08-12T03:45:12.176Z,54.94
2022-08-12T03:48:20.123Z,54.77
2022-08-12T03:51:06.794Z,54.90
2022-08-12T03:53:52.710Z,55.01
2022-08-12T03:56:38.834Z,55.33
2022-08-12T03:59:25.959Z,55.64
2022-08-12T04:01:57.856Z,55.33
2022-08-12T04:04:26.883Z,55.01
2022-08-12T04:06:54.236Z,55.22
2022-08-12T04:09:22.274Z,55.13
2022-08-12T04:12:19.010Z,54.72
2022-08-12T04:14:46.354Z,54.14
2022-08-12T04:17:14.488Z,54.08
2022-08-12T04:19:42.044Z,54.11
2022-08-12T04:22:12.637Z,53.90
2022-08-12T04:24:41.058Z,54.12
2022-08-12T04:27:09.561Z,54.12
2022-08-12T04:30:30.842Z,54.52
2022-08-12T04:32:26.007Z,54.53
2022-08-12T04:34:53.557Z,54.69
2022-08-12T04:37:21.034Z,54.36
2022-08-12T04:39:48.651Z,54.53
2022-08-12T04:42:16.377Z,54.35
2022-08-12T04:44:44.575Z,54.26
2022-08-12T04:47:16.604Z,53.88
2022-08-12T04:49:45.290Z,54.33
2022-08-12T04:52:12.761Z,54.56
2022-08-12T04:54:40.334Z,54.61
2022-08-12T04:57:09.973Z,54.72
2022-08-12T04:59:48.503Z,54.57
2022-08-12T05:02:21.008Z,54.69
2022-08-12T05:04:51.911Z,54.99
2022-08-12T05:07:20.446Z,55.16
2022-08-12T05:09:58.793Z,55.19
2022-08-12T05:12:38.125Z,54.81
2022-08-12T05:15:19.525Z,54.74
2022-08-12T05:17:54.067Z,54.77
2022-08-12T05:20:22.673Z,55.06
2022-08-12T05:22:53.149Z,55.33
2022-08-12T05:25:24.566Z,55.29
2022-08-12T05:27:58.656Z,54.89
2022-08-12T05:30:28.057Z,54.75
2022-08-12T05:32:59.978Z,54.56
2022-08-12T05:35:28.052Z,54.56
2022-08-12T05:38:15.556Z,54.40
2022-08-12T05:40:42.942Z,54.30
2022-08-12T05:43:10.318Z,54.11
2022-08-12T05:45:42.836Z,54.23
2022-08-12T05:48:12.438Z,54.21
2022-08-12T05:50:40.699Z,54.37
2022-08-12T05:53:08.266Z,54.10
2022-08-12T05:55:37.193Z,53.65
2022-08-12T05:58:05.269Z,53.27
2022-08-12T06:00:32.994Z,53.11
2022-08-12T06:03:01.682Z,52.98
2022-08-12T06:05:30.057Z,52.79
2022-08-12T06:08:01.716Z,52.80
2022-08-12T06:10:32.187Z,52.61
2022-08-12T06:13:02.386Z,52.21
2022-08-12T06:15:30.103Z,51.78
2022-08-12T06:18:14.004Z,51.66
2022-08-12T06:20:44.239Z,51.22
2022-08-12T06:23:12.073Z,51.14
2022-08-12T06:25:40.166Z,50.56
2022-08-12T06:28:16.099Z,49.72
2022-08-12T06:31:08.197Z,49.39
2022-08-12T06:33:59.620Z,49.45
2022-08-12T06:36:29.422Z,49.90
2022-08-12T06:38:58.740Z,49.39
2022-08-12T06:42:25.273Z,49.09
2022-08-12T06:44:32.779Z,49.24
2022-08-12T06:47:00.626Z,48.33
2022-08-12T06:49:33.616Z,48.13
2022-08-12T06:52:01.207Z,47.82
2022-08-12T06:54:31.517Z,46.34
2022-08-12T06:57:04.648Z,43.26
2022-08-12T06:59:35.822Z,39.59
2022-08-12T07:02:03.215Z,36.49
2022-08-12T07:04:36.755Z,34.79
2022-08-12T07:07:09.578Z,34.19
2022-08-12T07:10:00.189Z,33.49
2022-08-12T07:12:28.095Z,32.86
2022-08-12T07:14:57.711Z,32.83
2022-08-12T07:17:25.999Z,32.35
2022-08-12T07:19:54.078Z,33.00
2022-08-12T07:22:23.441Z,31.87
2022-08-12T07:25:10.932Z,33.49
2022-08-12T07:27:42.812Z,32.92
2022-08-12T07:30:11.065Z,32.12
2022-08-12T07:32:38.748Z,33.04
2022-08-12T07:35:06.591Z,35.98
2022-08-12T07:37:35.252Z,38.96
2022-08-12T07:40:02.874Z,40.41
2022-08-12T07:42:31.236Z,40.82
2022-08-12T07:44:59.618Z,41.68
2022-08-12T07:47:27.868Z,37.00
2022-08-12T07:50:04.749Z,39.75
2022-08-12T07:52:38.605Z,41.70
2022-08-12T07:55:06.726Z,41.10
2022-08-12T07:57:34.329Z,39.07
2022-08-12T08:00:03.917Z,39.01
2022-08-12T08:02:36.598Z,40.57
2022-08-12T08:05:04.741Z,42.49
2022-08-12T08:07:32.136Z,42.99
2022-08-12T08:10:00.455Z,42.96
2022-08-12T08:12:47.096Z,41.29
2022-08-12T08:15:15.846Z,40.67
2022-08-12T08:18:25.715Z,40.81
2022-08-12T08:20:55.411Z,38.49
2022-08-12T08:23:29.360Z,40.82
2022-08-12T08:26:02.756Z,40.79
2022-08-12T08:28:30.121Z,35.55
2022-08-12T08:30:57.486Z,33.45
2022-08-12T08:34:05.274Z,32.86
2022-08-12T08:36:16.315Z,33.59
2022-08-12T08:38:58.462Z,32.60
2022-08-12T08:42:15.601Z,31.07
2022-08-12T08:44:39.884Z,33.03
2022-08-12T08:47:07.893Z,34.79
2022-08-12T08:49:37.040Z,35.53
2022-08-12T08:52:09.534Z,33.84
2022-08-12T08:54:38.052Z,32.47
2022-08-12T08:57:08.338Z,34.16
2022-08-12T08:59:36.082Z,36.38
2022-08-12T09:02:03.889Z,37.66
2022-08-12T09:05:13.953Z,38.41
2022-08-12T09:07:43.876Z,38.45
2022-08-12T09:10:09.176Z,39.14
2022-08-12T09:13:08.136Z,38.48
2022-08-12T09:15:55.832Z,38.73
2022-08-12T09:21:12.595Z,38.83
2022-08-12T09:23:59.826Z,38.56
2022-08-12T09:26:30.053Z,38.39
2022-08-12T09:28:57.990Z,38.51
2022-08-12T09:32:03.494Z,39.03
2022-08-12T09:34:28.084Z,39.74
2022-08-12T09:37:18.537Z,38.80
2022-08-12T09:40:05.197Z,38.61
2022-08-12T09:43:10.920Z,38.43
2022-08-12T09:46:20.543Z,38.11
2022-08-12T09:48:34.865Z,37.96
2022-08-12T09:51:04.471Z,36.97
2022-08-12T09:53:39.713Z,36.32
2022-08-12T09:57:01.040Z,36.67
2022-08-12T09:59:00.242Z,37.36
2022-08-12T10:01:34.378Z,37.39
2022-08-12T10:04:06.020Z,37.19
2022-08-12T10:06:36.588Z,37.03
2022-08-12T10:09:12.332Z,37.15
2022-08-12T10:12:10.072Z,37.04
2022-08-12T10:14:50.199Z,36.18
2022-08-12T10:17:21.809Z,35.07
2022-08-12T10:19:52.522Z,35.21
2022-08-12T10:22:39.520Z,34.96
2022-08-12T10:26:35.409Z,35.57
2022-08-12T10:28:38.279Z,34.79
2022-08-12T10:31:06.758Z,34.80
2022-08-12T10:34:04.938Z,34.38
2022-08-12T10:36:39.804Z,34.83
2022-08-12T10:40:00.060Z,33.90
2022-08-12T10:42:29.482Z,32.62
2022-08-12T10:45:01.833Z,32.70
2022-08-12T10:48:07.160Z,33.76
2022-08-12T10:50:33.710Z,33.51
2022-08-12T10:53:08.809Z,33.57
2022-08-12T10:55:36.713Z,33.12
2022-08-12T10:58:14.588Z,33.06
2022-08-12T11:01:25.851Z,33.90
2022-08-12T11:04:23.175Z,33.46
2022-08-12T11:07:08.178Z,33.09
2022-08-12T11:09:54.313Z,34.12
2022-08-12T11:12:35.506Z,34.18
2022-08-12T11:14:56.967Z,33.97
2022-08-12T11:17:43.740Z,33.85
2022-08-12T11:20:14.875Z,33.54
2022-08-12T11:22:42.770Z,33.33
2022-08-12T11:25:25.561Z,32.69
2022-08-12T11:28:13.761Z,32.24
2022-08-12T11:30:42.025Z,32.27
2022-08-12T11:33:12.232Z,31.96
2022-08-12T11:35:56.253Z,33.82
2022-08-12T11:38:27.033Z,34.68
2022-08-12T11:40:54.644Z,34.15
2022-08-12T11:43:22.098Z,33.37
2022-08-12T11:45:53.246Z,33.49
2022-08-12T11:48:27.194Z,32.85
2022-08-12T11:50:55.511Z,32.30
2022-08-12T11:53:57.611Z,31.30
2022-08-12T11:56:11.433Z,31.38
2022-08-12T12:01:58.882Z,30.70
2022-08-12T12:02:02.279Z,31.77
2022-08-12T12:04:29.179Z,32.23
2022-08-12T12:07:07.029Z,32.20
2022-08-12T12:09:52.814Z,31.45
2022-08-12T12:12:22.764Z,32.29
2022-08-12T12:14:54.103Z,32.99
2022-08-12T12:17:24.552Z,32.74
2022-08-12T12:19:53.347Z,32.78
2022-08-12T12:22:23.699Z,32.14
2022-08-12T12:24:54.579Z,30.83
2022-08-12T12:28:03.889Z,31.26
2022-08-12T12:30:19.724Z,31.40
2022-08-12T12:32:57.879Z,31.91
2022-08-12T12:36:20.048Z,32.13
2022-08-12T12:38:13.364Z,31.21
2022-08-12T12:40:43.959Z,31.04
2022-08-12T12:43:14.620Z,30.76
2022-08-12T12:45:45.796Z,30.89
2022-08-12T12:48:22.963Z,30.11
2022-08-12T12:51:13.125Z,29.54
2022-08-12T12:54:06.490Z,30.41
2022-08-12T12:56:34.767Z,30.14
2022-08-12T12:59:03.936Z,29.42
2022-08-12T13:01:36.321Z,29.05
2022-08-12T13:04:12.527Z,29.76
2022-08-12T13:06:42.112Z,30.05
2022-08-12T13:09:13.300Z,29.72
2022-08-12T13:11:44.465Z,29.34
2022-08-12T13:14:29.084Z,29.62
2022-08-12T13:17:02.682Z,29.72
2022-08-12T13:19:44.501Z,29.02
2022-08-12T13:22:20.046Z,28.75
2022-08-12T13:24:51.824Z,28.73
2022-08-12T13:27:22.577Z,28.82
2022-08-12T13:29:50.160Z,30.18
2022-08-12T13:32:30.966Z,28.84
2022-08-12T13:35:04.543Z,28.84
2022-08-12T13:37:55.104Z,28.68
2022-08-12T13:40:29.869Z,29.04
2022-08-12T13:43:01.962Z,29.40
2022-08-12T13:45:30.421Z,28.86
2022-08-12T13:48:02.161Z,29.40
2022-08-12T13:50:36.678Z,29.69
2022-08-12T13:53:06.302Z,30.43
2022-08-12T13:55:59.773Z,30.72
2022-08-12T13:58:30.809Z,31.17
2022-08-12T14:01:04.786Z,30.39
2022-08-12T14:03:51.182Z,29.99
2022-08-12T14:06:19.710Z,29.82
2022-08-12T14:08:49.704Z,30.12
2022-08-12T14:11:18.656Z,30.39
2022-08-12T14:14:06.218Z,29.49
2022-08-12T14:16:46.896Z,29.87
2022-08-12T14:19:24.503Z,28.70
2022-08-12T14:21:59.813Z,28.48
2022-08-12T14:24:35.786Z,28.73
2022-08-12T14:27:08.835Z,28.65
2022-08-12T14:30:04.994Z,27.90
2022-08-12T14:32:40.001Z,27.53
2022-08-12T14:35:09.380Z,28.18
2022-08-12T14:37:55.034Z,27.94
2022-08-12T14:40:28.599Z,28.51
2022-08-12T14:42:59.923Z,29.06
2022-08-12T14:45:44.736Z,28.95
2022-08-12T14:48:16.792Z,28.73
2022-08-12T14:51:09.723Z,28.86
2022-08-12T14:59:57.498Z,27.48
2022-08-12T15:02:19.825Z,27.84
2022-08-12T15:04:59.515Z,28.16
2022-08-12T15:07:34.354Z,28.65
2022-08-12T15:10:31.915Z,29.23
2022-08-12T15:13:07.712Z,29.55
2022-08-12T15:15:44.187Z,29.85
2022-08-12T15:18:15.405Z,30.33
2022-08-12T15:20:49.151Z,30.88
2022-08-12T15:23:21.579Z,30.52
2022-08-12T15:26:02.668Z,30.01
2022-08-12T15:28:35.267Z,30.41
2022-08-12T15:31:03.082Z,30.98
2022-08-12T15:33:50.314Z,30.70
2022-08-12T15:36:25.057Z,30.97
2022-08-12T15:39:17.236Z,31.47
2022-08-12T15:41:50.071Z,31.54
2022-08-12T15:44:38.828Z,29.97
2022-08-12T15:47:06.526Z,30.46
2022-08-12T15:49:43.134Z,30.37
2022-08-12T15:52:27.801Z,30.35
2022-08-12T15:54:58.685Z,30.90
2022-08-12T15:57:27.581Z,31.48
2022-08-12T16:00:04.361Z,31.95
2022-08-12T16:02:50.727Z,31.82
2022-08-12T16:06:13.249Z,31.75
2022-08-12T16:08:18.469Z,31.13
2022-08-12T16:10:53.149Z,30.89
2022-08-12T16:13:32.740Z,30.89
2022-08-12T16:16:23.140Z,31.20
2022-08-12T16:18:56.390Z,30.99
2022-08-12T16:21:52.777Z,30.94
2022-08-12T16:24:12.471Z,30.66
2022-08-12T16:26:42.192Z,30.61
2022-08-12T16:29:15.504Z,31.17
2022-08-12T16:31:44.797Z,31.40
2022-08-12T16:34:25.899Z,30.96
2022-08-12T16:37:08.769Z,31.28
2022-08-12T16:39:59.779Z,31.23
2022-08-12T16:42:28.317Z,31.93
2022-08-12T16:45:02.658Z,31.00
2022-08-12T16:47:57.614Z,31.16
2022-08-12T16:50:30.671Z,30.98
2022-08-12T16:53:03.309Z,31.52
2022-08-12T16:55:42.234Z,31.45
2022-08-12T16:58:27.923Z,31.15
2022-08-12T17:00:59.007Z,31.41
2022-08-12T17:03:36.572Z,31.66
2022-08-12T17:06:06.654Z,31.71
2022-08-12T17:08:34.166Z,31.92
2022-08-12T17:11:01.641Z,31.96
2022-08-12T17:13:29.718Z,31.61
2022-08-12T17:16:06.205Z,32.15
2022-08-12T17:18:42.666Z,32.05
2022-08-12T17:21:17.384Z,32.41
2022-08-12T17:23:52.998Z,32.75
2022-08-12T17:26:30.808Z,33.00
2022-08-12T17:28:59.322Z,32.83
2022-08-12T17:31:59.931Z,33.05
2022-08-12T17:34:34.274Z,33.28
2022-08-12T17:37:05.488Z,33.40
2022-08-12T17:40:06.270Z,33.18
2022-08-12T17:42:32.732Z,32.73
2022-08-12T17:45:17.254Z,33.20
2022-08-12T17:48:04.663Z,33.49
2022-08-12T17:50:38.224Z,33.08
2022-08-12T17:53:08.179Z,33.57
2022-08-12T17:55:44.305Z,32.95
2022-08-12T17:58:35.547Z,33.70
2022-08-12T18:01:08.589Z,34.11
2022-08-12T18:04:04.293Z,34.41
2022-08-12T18:06:28.421Z,34.70
2022-08-12T18:08:59.091Z,34.74
2022-08-12T18:12:04.306Z,34.90
2022-08-12T18:14:33.127Z,34.86
2022-08-12T18:17:08.511Z,34.89
2022-08-12T18:20:06.320Z,35.17
2022-08-12T18:22:30.287Z,35.30
2022-08-12T18:25:05.546Z,36.29
2022-08-12T18:27:46.776Z,35.82
2022-08-12T18:30:20.912Z,35.81
2022-08-12T18:33:03.758Z,35.97
2022-08-12T18:35:46.317Z,36.07
2022-08-12T18:38:19.013Z,36.18
2022-08-12T18:41:06.060Z,36.55
2022-08-12T18:43:38.971Z,37.05
2022-08-12T18:46:29.284Z,37.44
2022-08-12T18:49:17.062Z,37.62
2022-08-12T18:51:51.939Z,37.75
2022-08-12T18:54:26.040Z,37.72
2022-08-12T18:56:59.398Z,37.63
2022-08-12T19:00:01.956Z,37.55
2022-08-12T19:02:21.413Z,37.85
2022-08-12T19:04:53.219Z,38.24
2022-08-12T19:07:22.944Z,38.28
2022-08-12T19:09:59.037Z,38.26
2022-08-12T19:12:56.930Z,38.28
2022-08-12T19:15:27.122Z,38.31
2022-08-12T19:18:03.106Z,38.40
2022-08-12T19:20:31.904Z,38.79
2022-08-12T19:23:02.470Z,39.04
2022-08-12T19:26:01.642Z,39.21
2022-08-12T19:28:30.352Z,39.30
2022-08-12T19:31:55.602Z,39.35
2022-08-12T19:37:18.524Z,39.62
2022-08-12T19:40:09.198Z,39.76
2022-08-12T19:42:33.974Z,39.88
2022-08-12T19:45:05.212Z,40.21
2022-08-12T19:47:39.110Z,40.05
2022-08-12T19:50:11.279Z,40.12
2022-08-12T19:52:39.650Z,39.84
2022-08-12T19:55:17.939Z,39.64
2022-08-12T19:58:01.466Z,40.03
2022-08-12T20:00:32.094Z,40.00
2022-08-12T20:03:04.781Z,40.31
2022-08-12T20:06:07.721Z,40.38
2022-08-12T20:08:34.194Z,40.56
2022-08-12T20:12:11.564Z,40.91
2022-08-12T20:14:00.412Z,40.97
2022-08-12T20:16:54.498Z,40.93
2022-08-12T20:19:52.077Z,40.89
2022-08-12T20:22:24.160Z,40.98
2022-08-12T20:25:02.293Z,40.93
2022-08-12T20:28:05.428Z,41.24
2022-08-12T20:30:20.738Z,41.29
2022-08-12T20:33:17.892Z,41.59
2022-08-12T20:36:06.458Z,41.89
2022-08-12T20:38:39.868Z,41.76
2022-08-12T20:41:16.726Z,41.80
2022-08-12T20:43:50.468Z,41.95
2022-08-12T20:46:19.474Z,41.98
2022-08-12T20:48:55.259Z,42.04
2022-08-12T20:51:28.226Z,42.07
2022-08-12T20:54:16.771Z,42.36
2022-08-12T20:56:45.994Z,42.25
2022-08-12T20:59:20.307Z,42.28
2022-08-12T21:01:49.270Z,42.17
2022-08-12T21:04:43.904Z,42.20
2022-08-12T21:07:14.469Z,42.15
2022-08-12T21:09:47.293Z,42.22
2022-08-12T21:12:31.433Z,42.39
2022-08-12T21:15:23.437Z,42.54
2022-08-12T21:18:15.445Z,42.65
2022-08-12T21:20:53.059Z,42.13
2022-08-12T21:23:22.532Z,42.08
2022-08-12T21:25:54.061Z,42.06
2022-08-12T21:28:27.461Z,42.17
2022-08-12T21:32:34.533Z,42.24
2022-08-12T21:34:07.886Z,42.42
2022-08-12T21:36:35.497Z,42.45
2022-08-12T21:39:18.560Z,42.56
2022-08-12T21:41:52.774Z,42.54
2022-08-12T21:44:23.983Z,42.57
2022-08-12T21:47:21.536Z,42.26
2022-08-12T21:50:02.935Z,42.12
2022-08-12T21:52:38.548Z,42.08
2022-08-12T21:55:17.162Z,41.94
2022-08-12T21:57:50.800Z,41.90
2022-08-12T22:00:32.438Z,42.08
2022-08-12T22:04:01.794Z,42.37
2022-08-12T22:06:30.764Z,42.34
2022-08-12T22:09:16.216Z,42.27
2022-08-12T22:11:56.066Z,42.59
2022-08-12T22:14:28.149Z,42.62
2022-08-12T22:16:56.198Z,43.02
2022-08-12T22:19:23.905Z,43.00
2022-08-12T22:21:54.597Z,43.32
2022-08-12T22:24:26.536Z,43.62
2022-08-12T22:27:31.614Z,43.90
2022-08-12T22:30:16.776Z,44.08
2022-08-12T22:32:51.294Z,44.15
2022-08-12T22:35:55.569Z,44.03
2022-08-12T22:38:24.263Z,44.17
2022-08-12T22:41:02.583Z,44.12
2022-08-12T22:44:01.045Z,44.24
2022-08-12T22:46:52.119Z,44.36
2022-08-12T22:49:22.345Z,44.31
2022-08-12T22:52:00.622Z,44.00
2022-08-12T22:54:36.203Z,43.97
2022-08-12T22:57:05.582Z,44.09
2022-08-12T22:59:55.018Z,43.78
2022-08-12T23:02:28.822Z,43.82
2022-08-12T23:04:58.002Z,43.53
2022-08-12T23:07:25.619Z,43.42
2022-08-12T23:09:54.809Z,43.23
2022-08-12T23:12:47.255Z,43.06
2022-08-12T23:15:16.479Z,43.13
2022-08-12T23:17:45.857Z,42.93
2022-08-12T23:20:15.223Z,42.26
2022-08-12T23:22:56.105Z,42.33
2022-08-12T23:25:32.789Z,41.92
2022-08-12T23:28:36.969Z,42.04
2022-08-12T23:31:06.390Z,41.65
2022-08-12T23:34:01.989Z,41.79
2022-08-12T23:36:31.912Z,41.54
2022-08-12T23:40:13.677Z,41.42
2022-08-12T23:42:17.515Z,41.56
2022-08-12T23:44:48.537Z,41.58
2022-08-12T23:47:21.467Z,41.69
2022-08-12T23:49:57.764Z,41.60
2022-08-12T23:52:27.658Z,41.48
2022-08-12T23:55:24.040Z,41.47
2022-08-12T23:58:18.239Z,41.80
